Weather at Bob Hope Airport

Public forecast

Using degrees Fahrenheit for public forecast. Weather courtesy of forecast.io.

Current aviation weather report (METAR) for Bob Hope Airport

Retrieved 2020/09/27 18:53 UTC (7 minutes ago):

KBUR 271853Z VRB03KT 9SM CLR 26/16 A2990 RMK AO2 SLP111 T02610156

Aviation forecast (TAF) for Bob Hope Airport

Retrieved 2020/09/27 18:46 UTC (14 minutes ago):

TAF KBUR 271737Z 2718/2818 VRB05KT 4SM BR SCT009 FM271900 VRB05KT 6SM HZ SCT012 SCT200 FM272200 17008KT P6SM SCT200 FM280300 VRB03KT P6SM SCT200 FM280800 VRB03KT 4SM BR OVC008 FM281500 VRB05KT 4SM BR OVC011